Time;durP1;ratioP1;P1;durP2;ratioP2;P2;SDS_P1;SDS_P2;PMS_P1;PMS_P2;Temp;Humidity;BMP_temperature;BMP_pressure;BME280_temperature;BME280_humidity;BME280_pressure;Samples;Min_cycle;Max_cycle;Signal;HPM_P1;HPM_P2
2021/09/01 00:02:08;;;;;;;13.07;5.40;;;;;;;15.47;90.16;102290.88;5007653;28;20574;-82
2021/09/01 00:04:34;;;;;;;11.43;5.15;;;;;;;15.48;90.46;102287.19;5007240;28;20338;-82
2021/09/01 00:06:59;;;;;;;13.10;4.88;;;;;;;15.47;90.62;102285.47;5021706;28;20044;-82
2021/09/01 00:09:25;;;;;;;13.20;5.05;;;;;;;15.48;90.83;102292.59;5005614;28;20041;-82
2021/09/01 00:11:51;;;;;;;12.60;4.50;;;;;;;15.49;90.26;102279.91;5005123;28;20351;-82
2021/09/01 00:14:17;;;;;;;13.10;4.78;;;;;;;15.51;90.20;102281.44;5005963;28;20081;-82
2021/09/01 00:16:43;;;;;;;11.88;4.88;;;;;;;15.51;90.62;102281.44;5006263;28;20486;-82
2021/09/01 00:19:09;;;;;;;16.50;5.70;;;;;;;15.55;90.57;102273.84;5006882;28;20065;-82
2021/09/01 00:21:36;;;;;;;11.25;4.22;;;;;;;15.48;90.33;102265.53;5005605;28;20038;-82
2021/09/01 00:24:01;;;;;;;13.70;4.53;;;;;;;15.50;90.96;102270.75;5021547;28;20045;-82
2021/09/01 00:26:27;;;;;;;13.30;4.07;;;;;;;15.50;90.47;102274.31;5007112;28;20062;-82
2021/09/01 00:28:53;;;;;;;16.85;5.10;;;;;;;15.47;90.21;102269.22;5006013;28;20074;-82
2021/09/01 00:31:18;;;;;;;14.60;5.80;;;;;;;15.46;90.56;102255.88;5006735;28;20514;-82
2021/09/01 00:33:45;;;;;;;19.33;5.25;;;;;;;15.52;90.94;102264.19;5003387;28;20037;-81
2021/09/01 00:36:10;;;;;;;16.25;4.88;;;;;;;15.50;90.31;102268.91;5006635;28;20065;-82
2021/09/01 00:38:36;;;;;;;16.20;5.20;;;;;;;15.52;90.85;102263.34;5006405;28;20076;-82
2021/09/01 00:41:02;;;;;;;15.30;5.35;;;;;;;15.51;90.82;102261.66;5005598;28;20066;-82
2021/09/01 00:43:27;;;;;;;13.27;5.38;;;;;;;15.48;90.71;102270.09;4988578;28;20038;-82
2021/09/01 00:45:52;;;;;;;12.23;4.65;;;;;;;15.41;90.53;102253.66;5004436;28;20121;-82
2021/09/01 00:48:22;;;;;;;17.98;4.93;;;;;;;15.46;90.97;102267.53;5005582;28;20691;-82
2021/09/01 00:50:58;;;;;;;16.77;5.35;;;;;;;15.50;91.04;102262.66;4984527;28;20048;-82
2021/09/01 00:53:27;;;;;;;13.82;5.38;;;;;;;15.47;90.65;102269.22;4998782;28;20042;-82
2021/09/01 00:55:55;;;;;;;;;;;;;;;15.46;90.75;102272.94;4994910;28;20045;-82
2021/09/01 00:58:20;;;;;;;14.05;4.90;;;;;;;15.35;91.17;102276.78;4996222;28;19928;-82
2021/09/01 01:03:27;;;;;;;14.43;5.05;;;;;;;15.34;91.77;102280.50;4992218;28;20042;-82
2021/09/01 01:05:55;;;;;;;13.38;5.15;;;;;;;15.35;91.66;102278.63;4995412;28;20373;-82
2021/09/01 01:08:21;;;;;;;12.80;5.25;;;;;;;15.33;91.56;102283.34;4997335;28;20046;-82
2021/09/01 01:10:46;;;;;;;11.40;5.57;;;;;;;15.35;91.64;102284.03;4990129;28;20051;-82
2021/09/01 01:13:15;;;;;;;13.88;5.57;;;;;;;15.40;91.66;102275.47;4997710;28;20837;-82
2021/09/01 01:15:40;;;;;;;15.23;5.88;;;;;;;15.37;91.90;102278.50;4997366;28;20113;-82
2021/09/01 01:18:10;;;;;;;15.27;5.05;;;;;;;15.34;92.09;102277.78;4992159;28;20471;-82
2021/09/01 01:20:36;;;;;;;11.75;5.00;;;;;;;15.38;92.14;102280.16;4996854;28;20029;-81
2021/09/01 01:23:02;;;;;;;17.02;5.75;;;;;;;15.35;92.06;102276.78;4996789;28;20309;-81
2021/09/01 01:25:33;;;;;;;16.27;5.75;;;;;;;15.39;92.03;102273.75;4997174;28;20046;-82
2021/09/01 01:27:59;;;;;;;15.40;6.18;;;;;;;15.36;92.14;102277.63;5003928;28;20527;-82
2021/09/01 01:30:24;;;;;;;23.55;5.78;;;;;;;15.36;92.36;102277.63;4998503;28;20041;-82
2021/09/01 01:32:53;;;;;;;17.65;5.53;;;;;;;15.38;92.50;102281.00;4995232;28;20049;-82
2021/09/01 01:35:27;;;;;;;14.87;5.37;;;;;;;15.37;92.23;102284.75;4981699;28;20501;-82
2021/09/01 01:37:54;;;;;;;15.45;6.40;;;;;;;15.40;92.61;102279.00;4994558;28;20060;-82
2021/09/01 01:40:21;;;;;;;16.48;5.43;;;;;;;15.35;92.33;102278.63;4993292;28;20041;-81
2021/09/01 01:42:46;;;;;;;13.93;6.28;;;;;;;15.34;92.92;102280.50;4995539;28;20131;-82
2021/09/01 01:45:12;;;;;;;17.40;5.80;;;;;;;15.28;93.09;102278.44;5003695;28;20065;-82
2021/09/01 01:47:37;;;;;;;20.45;6.43;;;;;;;15.29;93.12;102272.00;5000330;28;20505;-82
2021/09/01 01:50:05;;;;;;;15.95;5.22;;;;;;;15.28;93.21;102277.59;4986317;28;20061;-82
2021/09/01 01:52:30;;;;;;;14.18;6.13;;;;;;;15.30;93.30;102279.09;4991761;28;20038;-82
2021/09/01 01:54:56;;;;;;;15.52;5.20;;;;;;;15.28;93.26;102272.19;4997835;28;20128;-82
2021/09/01 01:57:21;;;;;;;14.77;5.57;;;;;;;15.29;93.66;102269.31;4993486;28;20531;-82
2021/09/01 01:59:46;;;;;;;15.43;5.82;;;;;;;15.28;93.08;102269.47;4996694;28;20045;-82
2021/09/01 02:02:12;;;;;;;13.52;5.65;;;;;;;15.29;93.12;102265.75;4983108;28;20498;-81
2021/09/01 02:04:37;;;;;;;16.35;6.05;;;;;;;15.28;93.55;102270.31;4994563;28;20128;-81
2021/09/01 02:07:03;;;;;;;17.38;6.22;;;;;;;15.31;93.34;102269.16;4994964;28;20671;-81
2021/09/01 02:09:28;;;;;;;18.67;5.75;;;;;;;15.33;93.38;102272.53;4999286;28;20048;-82
2021/09/01 02:11:53;;;;;;;18.40;6.15;;;;;;;15.28;93.94;102269.47;4993255;28;20057;-81
2021/09/01 02:14:19;;;;;;;18.52;6.05;;;;;;;15.30;93.78;102270.13;4992878;28;20566;-82
2021/09/01 02:16:44;;;;;;;19.80;6.40;;;;;;;15.30;93.97;102272.84;4995900;28;20462;-81
2021/09/01 02:19:10;;;;;;;18.48;6.32;;;;;;;15.29;94.07;102273.88;4997256;28;20212;-81
2021/09/01 02:21:37;;;;;;;22.30;6.38;;;;;;;15.31;93.80;102269.16;4994044;28;20323;-81
2021/09/01 02:24:04;;;;;;;17.77;6.38;;;;;;;15.31;93.79;102267.28;4993774;28;20141;-82
2021/09/01 02:26:29;;;;;;;16.10;6.05;;;;;;;15.27;94.14;102265.06;4994397;28;20046;-82
2021/09/01 02:28:55;;;;;;;14.30;6.05;;;;;;;15.22;94.59;102260.16;4981155;28;20379;-82
2021/09/01 02:31:20;;;;;;;17.65;6.38;;;;;;;15.26;94.59;102271.47;4975749;28;20519;-82
2021/09/01 02:33:45;;;;;;;14.80;6.45;;;;;;;15.25;94.81;102264.38;4998337;28;20660;-82
2021/09/01 02:36:11;;;;;;;20.30;5.90;;;;;;;15.27;94.26;102267.75;4997645;28;20298;-82
2021/09/01 02:38:39;;;;;;;14.43;5.70;;;;;;;15.25;95.26;102272.50;4999885;28;20495;-82
2021/09/01 02:41:04;;;;;;;14.43;5.57;;;;;;;15.19;94.92;102267.69;4999203;28;20053;-82
2021/09/01 02:43:30;;;;;;;15.98;5.38;;;;;;;15.22;94.51;102276.38;4995773;28;20041;-82
2021/09/01 02:45:55;;;;;;;15.10;5.45;;;;;;;15.25;94.71;102275.22;4994137;28;20396;-82
2021/09/01 02:48:20;;;;;;;13.82;6.25;;;;;;;15.29;94.69;102273.88;5008854;28;20045;-82
2021/09/01 02:50:46;;;;;;;17.52;6.25;;;;;;;15.29;94.15;102280.13;4995386;28;20486;-82
2021/09/01 02:53:11;;;;;;;13.38;6.32;;;;;;;15.23;93.94;102275.34;4995674;28;20062;-82
2021/09/01 02:55:36;;;;;;;16.63;5.72;;;;;;;15.26;94.65;102275.03;4988162;28;20067;-82
2021/09/01 02:58:04;;;;;;;14.95;5.72;;;;;;;15.27;94.47;102279.41;5000661;28;20057;-82
2021/09/01 03:00:29;;;;;;;14.73;5.97;;;;;;;15.27;93.52;102276.72;4994448;28;20057;-82
2021/09/01 03:02:55;;;;;;;15.23;5.82;;;;;;;15.25;93.34;102276.03;4997612;28;20046;-82
2021/09/01 03:05:20;;;;;;;14.30;5.68;;;;;;;15.23;93.50;102277.22;5009490;28;20120;-82
2021/09/01 03:07:46;;;;;;;14.85;5.88;;;;;;;15.25;93.52;102280.63;4993203;28;20507;-82
2021/09/01 03:10:11;;;;;;;17.08;5.60;;;;;;;15.24;93.59;102278.91;4994134;28;20153;-82
2021/09/01 03:12:36;;;;;;;15.85;5.65;;;;;;;15.26;93.59;102277.72;5001761;28;20491;-82
2021/09/01 03:15:02;;;;;;;19.95;6.13;;;;;;;15.26;93.62;102276.88;4985738;28;20089;-82
2021/09/01 03:17:27;;;;;;;13.27;5.40;;;;;;;15.24;93.50;102277.03;4987844;28;20122;-82
2021/09/01 03:19:53;;;;;;;14.45;6.03;;;;;;;15.25;93.82;102267.09;4984233;28;20124;-81
2021/09/01 03:22:18;;;;;;;10.75;5.28;;;;;;;15.24;93.75;102273.50;5000358;28;20057;-82
2021/09/01 03:24:43;;;;;;;14.52;6.07;;;;;;;15.25;93.98;102272.50;4982654;28;20057;-82
2021/09/01 03:27:09;;;;;;;14.18;5.60;;;;;;;15.24;94.06;102273.50;4996626;28;20300;-82
2021/09/01 03:29:34;;;;;;;15.90;6.20;;;;;;;15.23;93.66;102266.41;4981550;28;20046;-82
2021/09/01 03:31:59;;;;;;;14.02;6.95;;;;;;;15.25;93.98;102269.78;4999233;28;20172;-82
2021/09/01 03:34:25;;;;;;;15.73;6.15;;;;;;;15.23;93.89;102261.00;5012012;28;20053;-82
2021/09/01 03:36:50;;;;;;;15.48;6.15;;;;;;;15.22;93.72;102261.97;4984217;28;20048;-82
2021/09/01 03:39:16;;;;;;;17.40;6.72;;;;;;;15.23;93.86;102261.81;4984138;28;20030;-82
2021/09/01 03:41:41;;;;;;;17.48;6.38;;;;;;;15.21;93.81;102271.09;5011584;28;20050;-82
2021/09/01 03:44:06;;;;;;;15.18;6.35;;;;;;;15.15;94.24;102269.88;4996282;28;20042;-82
2021/09/01 03:46:32;;;;;;;15.18;5.63;;;;;;;15.11;94.14;102269.34;4984864;28;20710;-83
2021/09/01 03:48:57;;;;;;;15.20;5.72;;;;;;;15.18;94.21;102268.72;5003964;28;20073;-83
2021/09/01 03:51:22;;;;;;;15.63;6.78;;;;;;;15.12;94.30;102271.03;4986097;28;20042;-83
2021/09/01 03:53:48;;;;;;;11.63;5.38;;;;;;;15.15;94.24;102277.16;5002467;28;20035;-82
2021/09/01 03:56:13;;;;;;;13.38;5.70;;;;;;;15.18;94.38;102279.53;5004279;28;20277;-84
2021/09/01 03:58:38;;;;;;;16.88;7.03;;;;;;;15.19;94.59;102278.50;5000654;28;20048;-83
2021/09/01 04:01:04;;;;;;;17.60;7.07;;;;;;;15.16;94.69;102276.97;5009513;28;20049;-83
2021/09/01 04:03:29;;;;;;;13.57;6.60;;;;;;;15.11;94.92;102274.75;4998890;28;20045;-83
2021/09/01 04:05:54;;;;;;;16.65;6.80;;;;;;;15.12;94.66;102273.75;4998401;28;20692;-83
2021/09/01 04:08:20;;;;;;;21.25;7.07;;;;;;;15.09;95.07;102282.19;4998257;28;20069;-83
2021/09/01 04:10:45;;;;;;;15.73;6.40;;;;;;;15.11;95.59;102279.31;4999481;28;20045;-84
2021/09/01 04:13:11;;;;;;;12.73;6.97;;;;;;;15.12;95.69;102275.59;4995692;28;20034;-83
2021/09/01 04:15:36;;;;;;;15.27;6.60;;;;;;;15.12;95.68;102281.84;5000714;28;20050;-82
2021/09/01 04:18:01;;;;;;;16.67;7.28;;;;;;;15.11;95.35;102280.16;5002025;28;20049;-82
2021/09/01 04:20:27;;;;;;;16.58;7.10;;;;;;;15.12;95.45;102276.44;4984888;28;20037;-83
2021/09/01 04:22:53;;;;;;;13.23;6.45;;;;;;;15.12;95.88;102275.59;4983480;28;20083;-82
2021/09/01 04:25:19;;;;;;;15.77;6.95;;;;;;;15.13;95.73;102282.69;4996357;28;20043;-82
2021/09/01 04:27:44;;;;;;;17.23;7.30;;;;;;;15.07;95.83;102288.75;4976215;28;20042;-82
2021/09/01 04:30:10;;;;;;;17.20;9.05;;;;;;;15.07;95.46;102284.19;4983170;28;20073;-82
2021/09/01 04:32:35;;;;;;;16.15;7.53;;;;;;;15.06;95.73;102292.47;4993189;28;20470;-83
2021/09/01 04:35:00;;;;;;;13.90;7.30;;;;;;;15.07;95.84;102286.88;4981595;28;20049;-82
2021/09/01 04:37:26;;;;;;;16.27;7.55;;;;;;;15.05;96.36;102280.81;5001303;28;20251;-83
2021/09/01 04:39:51;;;;;;;17.88;7.53;;;;;;;15.04;95.80;102283.66;4994330;28;20041;-81
2021/09/01 04:42:17;;;;;;;19.73;8.05;;;;;;;15.05;96.62;102290.78;4992076;28;20085;-82
2021/09/01 04:44:42;;;;;;;17.98;7.45;;;;;;;15.06;96.12;102298.72;4998552;28;20067;-82
2021/09/01 04:47:07;;;;;;;16.35;7.25;;;;;;;15.04;95.67;102289.06;4996556;28;21558;-83
2021/09/01 04:49:33;;;;;;;14.82;6.75;;;;;;;15.03;96.09;102288.22;4962707;28;20633;-82
2021/09/01 04:51:58;;;;;;;16.83;6.95;;;;;;;15.07;95.90;102289.59;4995619;28;20070;-83
2021/09/01 04:54:24;;;;;;;16.08;7.00;;;;;;;15.04;96.48;102303.41;4994181;28;20069;-82
2021/09/01 04:56:49;;;;;;;16.98;7.50;;;;;;;15.05;96.08;102299.72;4999066;28;20526;-82
2021/09/01 04:59:14;;;;;;;14.57;7.30;;;;;;;15.02;96.74;102297.34;4999962;28;20030;-83
2021/09/01 05:01:40;;;;;;;18.77;7.40;;;;;;;15.03;96.68;102293.63;4992123;28;20140;-82
2021/09/01 05:04:06;;;;;;;15.60;6.68;;;;;;;15.02;96.40;102294.63;5014782;28;20046;-83
2021/09/01 05:06:31;;;;;;;14.70;6.72;;;;;;;15.14;95.77;102299.78;4997685;28;20102;-83
2021/09/01 05:08:57;;;;;;;14.98;6.80;;;;;;;15.08;95.75;102296.72;4999220;28;20059;-83
2021/09/01 05:11:22;;;;;;;16.58;7.03;;;;;;;15.05;96.05;102296.19;5015437;28;20038;-83
2021/09/01 05:13:48;;;;;;;13.65;6.68;;;;;;;15.04;95.95;102300.72;5002060;28;20566;-84
2021/09/01 05:16:14;;;;;;;16.55;6.75;;;;;;;15.00;95.90;102296.63;4999224;28;20403;-83
2021/09/01 05:18:39;;;;;;;13.55;6.82;;;;;;;15.09;95.54;102295.69;4996383;28;20134;-83
2021/09/01 05:21:06;;;;;;;19.60;7.47;;;;;;;15.12;95.20;102298.09;5000311;28;20109;-82
2021/09/01 05:23:33;;;;;;;15.20;7.32;;;;;;;15.17;95.21;102296.78;4998791;28;20069;-84
2021/09/01 05:26:09;;;;;;;14.60;7.20;;;;;;;15.15;95.62;102298.78;5004557;28;20252;-83
2021/09/01 05:28:36;;;;;;;14.77;7.03;;;;;;;15.12;95.52;102303.50;5009177;28;20037;-82
2021/09/01 05:31:04;;;;;;;18.85;8.05;;;;;;;15.05;96.08;102307.84;4999667;28;20103;-82
2021/09/01 05:33:35;;;;;;;16.85;7.25;;;;;;;15.05;95.91;102304.28;4994574;28;20034;-83
2021/09/01 05:36:04;;;;;;;16.85;8.05;;;;;;;15.00;96.10;102303.91;4995406;28;20127;-82
2021/09/01 05:38:35;;;;;;;15.10;7.33;;;;;;;15.04;96.41;102299.88;5002553;28;20092;-82
2021/09/01 05:41:02;;;;;;;15.95;7.90;;;;;;;15.02;96.54;102301.91;4997785;28;20048;-82
2021/09/01 05:43:28;;;;;;;18.02;7.50;;;;;;;15.04;96.18;102314.22;5011456;28;20041;-82
2021/09/01 05:45:53;;;;;;;17.73;7.75;;;;;;;15.09;95.99;102305.66;4996748;28;20718;-81
2021/09/01 05:48:21;;;;;;;14.18;7.22;;;;;;;15.07;96.08;102305.81;5001106;28;20056;-82
2021/09/01 05:50:55;;;;;;;17.83;6.88;;;;;;;15.06;95.90;102311.38;5009205;28;20116;-82
2021/09/01 05:53:22;;;;;;;20.83;7.60;;;;;;;15.02;96.56;102310.84;4993858;28;20037;-83
2021/09/01 05:55:52;;;;;;;19.73;7.00;;;;;;;15.06;96.10;102312.22;4993469;28;20228;-83
2021/09/01 05:58:19;;;;;;;17.70;7.68;;;;;;;15.11;95.50;102312.63;4992982;28;20042;-83
2021/09/01 06:00:52;;;;;;;17.27;7.53;;;;;;;15.10;95.93;102313.63;4990484;28;20129;-82
2021/09/01 06:03:28;;;;;;;19.00;7.10;;;;;;;15.06;96.15;102317.63;4995598;28;20332;-83
2021/09/01 06:05:56;;;;;;;16.55;7.07;;;;;;;15.09;96.34;102313.78;4995351;28;20121;-82
2021/09/01 06:08:24;;;;;;;16.42;6.82;;;;;;;15.07;95.78;102318.47;5000086;28;20065;-83
2021/09/01 06:10:53;;;;;;;15.68;6.70;;;;;;;15.08;95.57;102318.34;4997044;28;20053;-82
2021/09/01 06:13:19;;;;;;;14.70;7.07;;;;;;;15.08;95.74;102318.34;4982910;28;20038;-82
2021/09/01 06:15:45;;;;;;;14.70;6.90;;;;;;;15.10;95.10;102319.03;4998774;28;20041;-81
2021/09/01 06:18:10;;;;;;;15.60;7.18;;;;;;;15.13;95.15;102325.97;4993349;28;20046;-82
2021/09/01 06:20:37;;;;;;;14.55;7.03;;;;;;;15.11;95.04;102328.00;4995433;28;20046;-82
2021/09/01 06:23:04;;;;;;;15.40;6.95;;;;;;;15.12;94.71;102325.13;4992902;28;20060;-83
2021/09/01 06:25:29;;;;;;;17.27;7.47;;;;;;;15.15;94.97;102323.13;4991349;28;20037;-82
2021/09/01 06:27:55;;;;;;;15.32;6.90;;;;;;;15.19;94.35;102319.06;4983282;28;20042;-81
2021/09/01 06:30:21;;;;;;;16.30;6.78;;;;;;;15.12;94.13;102319.72;4997852;28;20042;-83
2021/09/01 06:32:47;;;;;;;18.65;7.70;;;;;;;15.12;94.29;102327.81;5006823;28;20510;-83
2021/09/01 06:35:12;;;;;;;16.60;7.38;;;;;;;15.14;94.44;102329.53;4999087;28;20529;-83
2021/09/01 06:37:39;;;;;;;14.27;7.47;;;;;;;15.14;94.66;102326.84;5000252;28;20519;-83
2021/09/01 06:40:06;;;;;;;13.90;7.60;;;;;;;15.16;94.89;102335.63;4999990;28;20054;-81
2021/09/01 06:42:32;;;;;;;14.43;7.63;;;;;;;15.17;95.52;102327.38;5004545;28;20545;-81
2021/09/01 06:44:57;;;;;;;17.90;7.10;;;;;;;15.14;95.43;102333.09;5000329;28;20220;-83
2021/09/01 06:47:23;;;;;;;16.15;6.63;;;;;;;15.15;94.75;102328.53;5001437;28;20050;-84
2021/09/01 06:49:48;;;;;;;20.10;7.70;;;;;;;15.15;95.07;102336.63;4997021;28;20048;-83
2021/09/01 06:52:15;;;;;;;15.23;7.30;;;;;;;15.19;95.23;102335.31;4994526;28;20058;-81
2021/09/01 06:54:40;;;;;;;15.10;7.40;;;;;;;15.19;94.58;102346.13;5000367;28;20053;-82
2021/09/01 06:57:05;;;;;;;15.90;7.13;;;;;;;15.17;94.60;102342.75;4995175;28;20073;-82
2021/09/01 06:59:31;;;;;;;13.82;6.82;;;;;;;15.22;94.53;102348.50;5012567;28;20046;-82
2021/09/01 07:01:56;;;;;;;16.17;6.85;;;;;;;15.16;94.20;102346.44;4997557;28;20252;-84
2021/09/01 07:04:21;;;;;;;13.50;6.72;;;;;;;15.15;93.70;102345.59;5001487;28;20042;-82
2021/09/01 07:06:47;;;;;;;14.68;5.95;;;;;;;15.18;93.26;102347.97;4999689;28;20038;-84
2021/09/01 07:09:12;;;;;;;16.13;6.57;;;;;;;15.17;93.17;102338.19;5000353;28;20046;-81
2021/09/01 07:11:38;;;;;;;14.32;6.10;;;;;;;15.17;93.32;102353.56;5004023;28;20049;-82
2021/09/01 07:14:03;;;;;;;13.70;6.20;;;;;;;15.16;92.65;102347.28;4995673;28;20510;-82
2021/09/01 07:16:29;;;;;;;14.93;5.75;;;;;;;15.26;92.42;102349.91;5000639;28;20046;-82
2021/09/01 07:18:54;;;;;;;14.68;5.85;;;;;;;15.27;92.00;102351.59;4999128;28;20049;-84
2021/09/01 07:21:19;;;;;;;11.40;6.60;;;;;;;15.30;91.63;102359.38;4997719;28;20049;-81
2021/09/01 07:23:45;;;;;;;12.65;6.18;;;;;;;15.30;91.58;102364.78;4983172;28;20045;-81
2021/09/01 07:26:12;;;;;;;13.63;6.20;;;;;;;15.26;91.13;102364.28;5001097;28;20541;-81
2021/09/01 07:28:39;;;;;;;11.40;5.75;;;;;;;15.27;91.24;102360.56;4999325;28;20045;-83
2021/09/01 07:31:05;;;;;;;13.50;5.97;;;;;;;15.30;91.10;102364.78;5000863;28;20120;-83
2021/09/01 07:33:31;;;;;;;14.65;6.85;;;;;;;15.33;90.99;102372.59;4999794;28;20132;-83
2021/09/01 07:35:56;;;;;;;15.20;6.15;;;;;;;15.34;91.70;102382.44;5000156;28;20045;-82
2021/09/01 07:38:22;;;;;;;18.20;6.53;;;;;;;15.39;91.45;102371.13;5001892;28;20096;-83
2021/09/01 07:40:47;;;;;;;16.88;6.75;;;;;;;15.41;91.93;102388.06;4996353;28;20049;-84
2021/09/01 07:43:13;;;;;;;13.40;5.97;;;;;;;15.38;91.57;102382.97;4998536;28;20041;-82
2021/09/01 07:45:39;;;;;;;14.68;6.50;;;;;;;15.38;91.72;102386.50;4985875;28;20056;-82
2021/09/01 07:48:04;;;;;;;17.48;6.15;;;;;;;15.37;91.64;102392.94;4996652;28;20050;-84
2021/09/01 07:50:31;;;;;;;14.10;6.27;;;;;;;15.39;91.37;102390.91;4999521;28;20041;-84
2021/09/01 07:52:58;;;;;;;14.20;6.80;;;;;;;15.42;90.81;102387.03;5009646;28;20255;-83
2021/09/01 07:55:24;;;;;;;14.63;6.25;;;;;;;15.42;90.69;102384.31;4998996;28;20050;-83
2021/09/01 07:57:49;;;;;;;12.05;6.15;;;;;;;15.43;90.41;102386.88;4989422;28;20037;-81
2021/09/01 08:00:16;;;;;;;15.15;6.85;;;;;;;15.45;90.65;102390.28;5002154;28;20046;-82
2021/09/01 08:02:41;;;;;;;14.15;6.18;;;;;;;15.45;89.88;102384.88;4997327;28;20487;-82
2021/09/01 08:05:08;;;;;;;13.30;6.18;;;;;;;15.44;89.83;102388.56;4999883;28;20056;-83
2021/09/01 08:07:34;;;;;;;13.70;5.43;;;;;;;15.46;89.41;102400.09;5000516;28;20038;-83
2021/09/01 08:10:00;;;;;;;15.38;6.15;;;;;;;15.51;89.44;102399.63;4994166;28;20056;-82
2021/09/01 08:12:26;;;;;;;14.65;5.32;;;;;;;15.46;89.43;102402.81;4985644;28;20407;-82
2021/09/01 08:14:51;;;;;;;15.32;6.20;;;;;;;15.51;89.19;102405.06;4995637;28;20542;-84
2021/09/01 08:17:16;;;;;;;14.57;6.10;;;;;;;15.57;89.05;102416.09;4995037;28;20155;-84
2021/09/01 08:19:44;;;;;;;13.75;5.57;;;;;;;15.63;89.13;102424.59;5003820;28;20080;-84
2021/09/01 08:22:10;;;;;;;13.27;5.55;;;;;;;15.60;88.78;102419.50;4996424;28;20108;-81
2021/09/01 08:24:38;;;;;;;14.88;5.53;;;;;;;15.60;88.94;102422.19;5014867;28;20468;-82
2021/09/01 08:27:08;;;;;;;16.65;5.65;;;;;;;15.54;88.30;102427.22;4965636;28;20159;-82
2021/09/01 08:29:33;;;;;;;13.20;5.40;;;;;;;15.57;88.10;102421.50;4982636;28;20029;-82
2021/09/01 08:31:59;;;;;;;11.90;5.53;;;;;;;15.64;87.79;102428.97;4982811;28;20088;-82
2021/09/01 08:34:25;;;;;;;12.20;5.50;;;;;;;15.61;87.42;102432.84;5000037;28;20505;-83
2021/09/01 08:36:50;;;;;;;16.48;5.75;;;;;;;15.61;87.63;102429.28;4996371;28;20048;-83
2021/09/01 08:39:15;;;;;;;15.15;5.95;;;;;;;15.70;88.07;102436.50;4999462;28;20144;-84
2021/09/01 08:41:42;;;;;;;10.75;4.88;;;;;;;15.69;86.68;102441.06;5002955;28;20041;-81
2021/09/01 08:44:08;;;;;;;10.15;4.60;;;;;;;15.75;86.90;102434.16;5000018;28;20045;-82
2021/09/01 08:46:34;;;;;;;12.77;4.60;;;;;;;15.77;86.91;102433.00;4996632;28;20323;-83
2021/09/01 08:49:01;;;;;;;11.80;4.15;;;;;;;15.81;86.97;102438.09;4994556;28;20038;-82
2021/09/01 08:51:27;;;;;;;18.10;4.63;;;;;;;15.86;87.29;102444.72;5008682;28;20038;-81
2021/09/01 08:53:56;;;;;;;14.60;4.78;;;;;;;15.86;86.04;102436.63;4994658;28;20046;-84
2021/09/01 08:56:23;;;;;;;11.60;5.20;;;;;;;15.93;86.25;102431.41;4999972;28;20479;-82
2021/09/01 08:58:48;;;;;;;8.95;4.30;;;;;;;15.94;85.12;102439.38;4999387;28;20052;-83
2021/09/01 09:01:39;;;;;;;9.32;4.30;;;;;;;15.96;85.65;102439.19;4998149;28;20037;-82
2021/09/01 09:04:05;;;;;;;13.90;4.75;;;;;;;15.95;85.97;102432.94;5014238;28;20572;-83
2021/09/01 09:07:04;;;;;;;14.20;5.38;;;;;;;15.95;85.40;102435.66;4992939;28;20056;-82
2021/09/01 09:09:33;;;;;;;;;;;;;;;15.95;86.00;102432.94;4992018;28;20041;-83
2021/09/01 09:12:02;;;;;;;12.63;4.88;;;;;;;15.86;85.99;102425.78;4998169;28;19926;-83
2021/09/01 09:14:39;;;;;;;13.48;4.40;;;;;;;15.84;85.82;102427.78;4998107;28;20052;-81
2021/09/01 09:17:15;;;;;;;11.55;4.75;;;;;;;15.83;84.63;102430.69;4997173;28;20433;-82
2021/09/01 09:19:45;;;;;;;10.38;4.53;;;;;;;15.93;85.38;102436.81;5009859;28;20057;-83
2021/09/01 09:22:12;;;;;;;10.70;4.47;;;;;;;15.90;84.63;102435.28;4995403;28;20201;-83
2021/09/01 09:24:37;;;;;;;10.98;4.55;;;;;;;15.98;85.50;102440.75;4995595;28;20565;-84
2021/09/01 09:27:05;;;;;;;12.40;4.50;;;;;;;15.95;84.69;102445.63;4998293;28;20034;-82
2021/09/01 09:29:30;;;;;;;13.18;4.20;;;;;;;15.97;85.13;102433.63;4997807;28;20037;-83
2021/09/01 09:32:04;;;;;;;11.13;4.25;;;;;;;15.92;84.06;102441.38;4993899;28;20043;-83
2021/09/01 09:34:42;;;;;;;10.85;4.55;;;;;;;15.92;84.45;102444.09;4996675;28;20045;-83
2021/09/01 09:37:12;;;;;;;9.85;4.30;;;;;;;16.02;84.88;102439.44;4996461;28;20076;-82
2021/09/01 09:40:11;;;;;;;11.45;4.93;;;;;;;16.05;84.50;102432.81;4999581;28;20517;-81
2021/09/01 09:42:38;;;;;;;13.07;4.75;;;;;;;16.01;83.25;102439.56;4968424;28;20488;-82
2021/09/01 09:45:19;;;;;;;11.27;4.25;;;;;;;16.04;85.14;102435.69;5016690;28;20045;-83
2021/09/01 09:47:49;;;;;;;12.48;5.20;;;;;;;16.14;84.08;102433.72;5004396;28;20376;-84
2021/09/01 09:50:14;;;;;;;;;;;;;;;16.18;82.92;102435.09;4994380;28;20053;-82
2021/09/01 09:52:40;;;;;;;9.25;4.47;;;;;;;16.12;83.94;102433.88;5001482;28;19933;-82
2021/09/01 09:55:16;;;;;;;13.13;4.55;;;;;;;16.22;84.24;102441.88;4996366;28;20046;-83
2021/09/01 09:57:49;;;;;;;11.27;4.03;;;;;;;16.17;82.54;102442.38;4998213;28;20824;-83
2021/09/01 10:00:16;;;;;;;11.50;5.07;;;;;;;16.19;82.94;102442.22;4993830;28;20128;-83
2021/09/01 10:02:43;;;;;;;10.80;4.30;;;;;;;16.29;83.69;102448.38;5000848;28;20425;-83
2021/09/01 10:05:13;;;;;;;10.85;4.60;;;;;;;16.30;83.12;102441.94;4981036;28;20097;-84
2021/09/01 10:07:39;;;;;;;10.98;4.47;;;;;;;16.32;82.63;102444.50;5018687;28;20612;-82
2021/09/01 10:10:06;;;;;;;14.90;4.95;;;;;;;16.29;83.85;102437.53;4997518;28;20060;-83
2021/09/01 10:12:34;;;;;;;10.25;4.03;;;;;;;16.29;82.56;102437.53;5001126;28;20046;-82
2021/09/01 10:15:01;;;;;;;11.40;4.38;;;;;;;16.28;82.54;102435.81;4996396;28;20475;-83
2021/09/01 10:17:28;;;;;;;10.10;4.65;;;;;;;16.43;82.34;102450.47;5002372;28;20078;-82
2021/09/01 10:19:54;;;;;;;12.60;4.80;;;;;;;16.40;81.86;102442.66;4992718;28;20038;-81
2021/09/01 10:22:20;;;;;;;10.07;4.28;;;;;;;16.42;82.15;102440.63;4996936;28;20057;-83
2021/09/01 10:24:49;;;;;;;10.68;4.25;;;;;;;16.51;81.33;102436.09;5000489;28;20037;-82
2021/09/01 10:27:22;;;;;;;12.70;4.55;;;;;;;16.59;81.07;102433.41;5001846;28;20053;-81
2021/09/01 10:29:56;;;;;;;12.75;4.57;;;;;;;16.63;81.94;102433.91;4998397;28;20045;-81
2021/09/01 10:32:24;;;;;;;8.05;4.45;;;;;;;16.64;81.15;102427.50;5000831;28;20214;-82
2021/09/01 10:35:13;;;;;;;8.63;4.15;;;;;;;16.61;80.74;102431.41;4994653;28;20165;-82
2021/09/01 10:37:42;;;;;;;11.70;4.38;;;;;;;16.77;80.86;102435.19;5014789;28;20077;-83
2021/09/01 10:40:11;;;;;;;12.25;4.68;;;;;;;16.75;79.44;102424.50;5016379;28;20116;-82
2021/09/01 10:42:39;;;;;;;8.82;3.75;;;;;;;16.77;79.85;102425.19;5016506;28;20084;-84
2021/09/01 10:45:14;;;;;;;10.38;3.58;;;;;;;16.72;79.10;102422.13;5015148;28;20053;-82
2021/09/01 10:47:52;;;;;;;12.00;3.90;;;;;;;16.74;80.17;102424.66;4999730;28;20049;-83
2021/09/01 10:50:45;;;;;;;10.88;4.38;;;;;;;16.97;79.45;102430.31;4999647;28;20127;-82
2021/09/01 10:53:29;;;;;;;10.02;4.28;;;;;;;16.98;78.93;102434.75;4993876;28;20041;-85
2021/09/01 10:55:58;;;;;;;9.80;4.22;;;;;;;17.04;80.14;102429.50;5002043;28;20046;-83
2021/09/01 10:58:38;;;;;;;7.95;3.55;;;;;;;16.77;77.10;102425.19;5012778;28;20056;-82
2021/09/01 11:01:09;;;;;;;9.77;3.90;;;;;;;16.90;78.63;102428.28;4998044;28;20125;-83
2021/09/01 11:03:39;;;;;;;9.20;3.67;;;;;;;16.97;77.89;102423.03;4999484;28;20037;-84
2021/09/01 11:06:16;;;;;;;11.02;4.22;;;;;;;16.97;77.77;102431.16;5016056;28;20034;-84
2021/09/01 11:08:58;;;;;;;8.85;3.97;;;;;;;17.10;80.27;102419.84;5000276;28;20085;-83
2021/09/01 11:11:35;;;;;;;10.50;3.80;;;;;;;17.02;78.12;102417.97;5012590;28;20131;-82
2021/09/01 11:14:01;;;;;;;12.52;4.00;;;;;;;17.00;75.74;102419.13;5015786;28;20523;-84
2021/09/01 11:16:26;;;;;;;10.38;4.10;;;;;;;17.05;77.61;102411.34;4998766;28;20065;-82
2021/09/01 11:19:00;;;;;;;9.25;4.05;;;;;;;17.08;76.79;102411.03;4996500;28;20527;-82
2021/09/01 11:21:28;;;;;;;8.27;3.97;;;;;;;17.08;75.76;102411.03;5009414;28;20030;-82
2021/09/01 11:23:55;;;;;;;9.30;3.75;;;;;;;17.18;77.49;102409.00;5006607;28;20038;-83